sensor_id;sensor_type;location;lat;lon;timestamp;P1;durP1;ratioP1;P2;durP2;ratioP2
37645;SDS011;23489;49.600;6.138;2024-03-02T00:00:04;2.05;;;1.40;;
37645;SDS011;23489;49.600;6.138;2024-03-02T00:05:10;2.85;;;1.80;;
37645;SDS011;23489;49.600;6.138;2024-03-02T00:07:37;3.28;;;1.63;;
37645;SDS011;23489;49.600;6.138;2024-03-02T00:10:07;3.60;;;1.73;;
37645;SDS011;23489;49.600;6.138;2024-03-02T00:12:37;3.95;;;1.90;;
37645;SDS011;23489;49.600;6.138;2024-03-02T00:15:07;4.88;;;1.60;;
37645;SDS011;23489;49.600;6.138;2024-03-02T00:17:44;2.50;;;1.73;;
37645;SDS011;23489;49.600;6.138;2024-03-02T00:20:11;2.08;;;1.52;;
37645;SDS011;23489;49.600;6.138;2024-03-02T00:22:43;4.10;;;1.67;;
37645;SDS011;23489;49.600;6.138;2024-03-02T00:25:08;1.60;;;1.48;;
37645;SDS011;23489;49.600;6.138;2024-03-02T00:27:35;2.53;;;1.65;;
37645;SDS011;23489;49.600;6.138;2024-03-02T00:30:01;4.10;;;1.50;;
37645;SDS011;23489;49.600;6.138;2024-03-02T00:32:51;2.17;;;1.50;;
37645;SDS011;23489;49.600;6.138;2024-03-02T00:35:23;1.48;;;1.30;;
37645;SDS011;23489;49.600;6.138;2024-03-02T00:37:48;2.33;;;1.67;;
37645;SDS011;23489;49.600;6.138;2024-03-02T00:40:17;3.30;;;1.50;;
37645;SDS011;23489;49.600;6.138;2024-03-02T00:42:44;2.00;;;1.45;;
37645;SDS011;23489;49.600;6.138;2024-03-02T00:45:09;5.20;;;1.73;;
37645;SDS011;23489;49.600;6.138;2024-03-02T00:47:38;4.75;;;1.73;;
37645;SDS011;23489;49.600;6.138;2024-03-02T00:50:05;1.75;;;1.50;;
37645;SDS011;23489;49.600;6.138;2024-03-02T00:52:31;3.40;;;1.77;;
37645;SDS011;23489;49.600;6.138;2024-03-02T00:54:58;2.85;;;1.42;;
37645;SDS011;23489;49.600;6.138;2024-03-02T00:57:24;2.47;;;1.42;;
37645;SDS011;23489;49.600;6.138;2024-03-02T00:59:51;1.95;;;1.52;;
37645;SDS011;23489;49.600;6.138;2024-03-02T01:02:17;3.38;;;1.38;;
37645;SDS011;23489;49.600;6.138;2024-03-02T01:04:45;2.00;;;1.50;;
37645;SDS011;23489;49.600;6.138;2024-03-02T01:07:10;2.25;;;1.20;;
37645;SDS011;23489;49.600;6.138;2024-03-02T01:09:36;2.15;;;1.48;;
37645;SDS011;23489;49.600;6.138;2024-03-02T01:12:02;3.88;;;1.92;;
37645;SDS011;23489;49.600;6.138;2024-03-02T01:14:28;2.28;;;1.58;;
37645;SDS011;23489;49.600;6.138;2024-03-02T01:16:54;2.60;;;1.60;;
37645;SDS011;23489;49.600;6.138;2024-03-02T01:19:20;4.75;;;1.98;;
37645;SDS011;23489;49.600;6.138;2024-03-02T01:21:46;3.97;;;1.52;;
37645;SDS011;23489;49.600;6.138;2024-03-02T01:24:11;2.28;;;1.50;;
37645;SDS011;23489;49.600;6.138;2024-03-02T01:26:38;4.38;;;1.70;;
37645;SDS011;23489;49.600;6.138;2024-03-02T01:29:04;3.30;;;1.63;;
37645;SDS011;23489;49.600;6.138;2024-03-02T01:31:29;3.35;;;1.60;;
37645;SDS011;23489;49.600;6.138;2024-03-02T01:33:55;2.15;;;1.50;;
37645;SDS011;23489;49.600;6.138;2024-03-02T01:36:21;3.80;;;1.50;;
37645;SDS011;23489;49.600;6.138;2024-03-02T01:38:46;1.92;;;1.60;;
37645;SDS011;23489;49.600;6.138;2024-03-02T01:41:12;2.33;;;1.55;;
37645;SDS011;23489;49.600;6.138;2024-03-02T01:43:38;2.78;;;1.63;;
37645;SDS011;23489;49.600;6.138;2024-03-02T01:46:04;1.70;;;1.48;;
37645;SDS011;23489;49.600;6.138;2024-03-02T01:48:30;1.60;;;1.50;;
37645;SDS011;23489;49.600;6.138;2024-03-02T01:50:55;2.60;;;1.40;;
37645;SDS011;23489;49.600;6.138;2024-03-02T01:53:21;1.90;;;1.38;;
37645;SDS011;23489;49.600;6.138;2024-03-02T01:55:47;2.35;;;1.60;;
37645;SDS011;23489;49.600;6.138;2024-03-02T01:58:12;2.85;;;1.70;;
37645;SDS011;23489;49.600;6.138;2024-03-02T02:00:38;3.35;;;1.60;;
37645;SDS011;23489;49.600;6.138;2024-03-02T02:03:04;4.82;;;1.48;;
37645;SDS011;23489;49.600;6.138;2024-03-02T02:05:29;2.70;;;1.80;;
37645;SDS011;23489;49.600;6.138;2024-03-02T02:07:56;2.00;;;1.70;;
37645;SDS011;23489;49.600;6.138;2024-03-02T02:10:23;2.78;;;1.70;;
37645;SDS011;23489;49.600;6.138;2024-03-02T02:12:49;2.00;;;1.77;;
37645;SDS011;23489;49.600;6.138;2024-03-02T02:15:22;1.63;;;1.40;;
37645;SDS011;23489;49.600;6.138;2024-03-02T02:17:52;3.15;;;1.63;;
37645;SDS011;23489;49.600;6.138;2024-03-02T02:20:18;5.07;;;1.63;;
37645;SDS011;23489;49.600;6.138;2024-03-02T02:25:26;2.75;;;1.30;;
37645;SDS011;23489;49.600;6.138;2024-03-02T02:27:52;4.15;;;1.75;;
37645;SDS011;23489;49.600;6.138;2024-03-02T02:30:19;3.38;;;1.60;;
37645;SDS011;23489;49.600;6.138;2024-03-02T02:32:47;2.22;;;1.65;;
37645;SDS011;23489;49.600;6.138;2024-03-02T02:35:12;2.03;;;1.35;;
37645;SDS011;23489;49.600;6.138;2024-03-02T02:37:38;3.08;;;1.10;;
37645;SDS011;23489;49.600;6.138;2024-03-02T02:40:04;2.97;;;1.00;;
37645;SDS011;23489;49.600;6.138;2024-03-02T02:42:30;4.15;;;1.38;;
37645;SDS011;23489;49.600;6.138;2024-03-02T02:44:56;1.80;;;1.05;;
37645;SDS011;23489;49.600;6.138;2024-03-02T02:47:21;2.22;;;1.23;;
37645;SDS011;23489;49.600;6.138;2024-03-02T02:49:47;2.40;;;1.15;;
37645;SDS011;23489;49.600;6.138;2024-03-02T02:52:13;1.73;;;1.30;;
37645;SDS011;23489;49.600;6.138;2024-03-02T02:54:39;1.40;;;1.20;;
37645;SDS011;23489;49.600;6.138;2024-03-02T02:57:04;1.85;;;1.38;;
37645;SDS011;23489;49.600;6.138;2024-03-02T02:59:30;2.30;;;1.45;;
37645;SDS011;23489;49.600;6.138;2024-03-02T03:01:55;1.25;;;1.00;;
37645;SDS011;23489;49.600;6.138;2024-03-02T03:04:21;1.15;;;0.90;;
37645;SDS011;23489;49.600;6.138;2024-03-02T03:06:47;1.67;;;1.35;;
37645;SDS011;23489;49.600;6.138;2024-03-02T03:09:12;3.97;;;1.35;;
37645;SDS011;23489;49.600;6.138;2024-03-02T03:11:38;1.63;;;1.17;;
37645;SDS011;23489;49.600;6.138;2024-03-02T03:14:04;2.42;;;1.17;;
37645;SDS011;23489;49.600;6.138;2024-03-02T03:16:30;3.47;;;1.42;;
37645;SDS011;23489;49.600;6.138;2024-03-02T03:18:55;1.58;;;1.30;;
37645;SDS011;23489;49.600;6.138;2024-03-02T03:21:21;3.95;;;1.40;;
37645;SDS011;23489;49.600;6.138;2024-03-02T03:23:47;0.88;;;0.88;;
37645;SDS011;23489;49.600;6.138;2024-03-02T03:31:04;1.30;;;1.20;;
37645;SDS011;23489;49.600;6.138;2024-03-02T03:33:29;0.85;;;0.85;;
37645;SDS011;23489;49.600;6.138;2024-03-02T03:35:55;0.75;;;0.70;;
37645;SDS011;23489;49.600;6.138;2024-03-02T03:38:21;3.83;;;0.82;;
37645;SDS011;23489;49.600;6.138;2024-03-02T03:40:46;0.70;;;0.60;;
37645;SDS011;23489;49.600;6.138;2024-03-02T03:43:12;0.70;;;0.70;;
37645;SDS011;23489;49.600;6.138;2024-03-02T03:45:38;0.80;;;0.63;;
37645;SDS011;23489;49.600;6.138;2024-03-02T03:48:04;1.05;;;0.68;;
37645;SDS011;23489;49.600;6.138;2024-03-02T03:50:30;0.90;;;0.60;;
37645;SDS011;23489;49.600;6.138;2024-03-02T03:52:55;2.33;;;0.80;;
37645;SDS011;23489;49.600;6.138;2024-03-02T03:55:21;0.60;;;0.60;;
37645;SDS011;23489;49.600;6.138;2024-03-02T03:57:47;1.05;;;0.75;;
37645;SDS011;23489;49.600;6.138;2024-03-02T04:00:13;2.00;;;0.60;;
37645;SDS011;23489;49.600;6.138;2024-03-02T04:02:39;0.52;;;0.40;;
37645;SDS011;23489;49.600;6.138;2024-03-02T04:05:05;0.80;;;0.73;;
37645;SDS011;23489;49.600;6.138;2024-03-02T04:07:34;1.50;;;0.75;;
37645;SDS011;23489;49.600;6.138;2024-03-02T04:10:06;0.70;;;0.70;;
37645;SDS011;23489;49.600;6.138;2024-03-02T04:12:38;2.22;;;0.90;;
37645;SDS011;23489;49.600;6.138;2024-03-02T04:15:07;0.50;;;0.50;;
37645;SDS011;23489;49.600;6.138;2024-03-02T04:17:33;1.13;;;0.80;;
37645;SDS011;23489;49.600;6.138;2024-03-02T04:20:00;0.82;;;0.70;;
37645;SDS011;23489;49.600;6.138;2024-03-02T04:22:27;1.15;;;0.80;;
37645;SDS011;23489;49.600;6.138;2024-03-02T04:24:53;0.70;;;0.60;;
37645;SDS011;23489;49.600;6.138;2024-03-02T04:27:19;0.82;;;0.47;;
37645;SDS011;23489;49.600;6.138;2024-03-02T04:29:45;0.95;;;0.55;;
37645;SDS011;23489;49.600;6.138;2024-03-02T04:32:10;1.27;;;0.63;;
37645;SDS011;23489;49.600;6.138;2024-03-02T04:34:36;1.02;;;0.40;;
37645;SDS011;23489;49.600;6.138;2024-03-02T04:37:02;0.52;;;0.52;;
37645;SDS011;23489;49.600;6.138;2024-03-02T04:39:27;1.38;;;0.60;;
37645;SDS011;23489;49.600;6.138;2024-03-02T04:41:53;1.38;;;0.40;;
37645;SDS011;23489;49.600;6.138;2024-03-02T04:44:19;2.28;;;0.70;;
37645;SDS011;23489;49.600;6.138;2024-03-02T04:46:45;0.75;;;0.60;;
37645;SDS011;23489;49.600;6.138;2024-03-02T04:49:10;0.30;;;0.30;;
37645;SDS011;23489;49.600;6.138;2024-03-02T04:51:36;1.08;;;0.63;;
37645;SDS011;23489;49.600;6.138;2024-03-02T04:54:02;2.28;;;0.80;;
37645;SDS011;23489;49.600;6.138;2024-03-02T04:56:27;0.73;;;0.47;;
37645;SDS011;23489;49.600;6.138;2024-03-02T04:58:56;2.13;;;0.52;;
37645;SDS011;23489;49.600;6.138;2024-03-02T05:01:22;2.05;;;0.57;;
37645;SDS011;23489;49.600;6.138;2024-03-02T05:03:48;0.65;;;0.65;;
37645;SDS011;23489;49.600;6.138;2024-03-02T05:06:13;1.15;;;0.63;;
37645;SDS011;23489;49.600;6.138;2024-03-02T05:08:39;0.60;;;0.43;;
37645;SDS011;23489;49.600;6.138;2024-03-02T05:11:05;0.40;;;0.40;;
37645;SDS011;23489;49.600;6.138;2024-03-02T05:13:49;1.90;;;0.65;;
37645;SDS011;23489;49.600;6.138;2024-03-02T05:16:15;1.13;;;0.60;;
37645;SDS011;23489;49.600;6.138;2024-03-02T05:18:40;1.67;;;0.70;;
37645;SDS011;23489;49.600;6.138;2024-03-02T05:21:06;1.00;;;0.60;;
37645;SDS011;23489;49.600;6.138;2024-03-02T05:23:32;1.05;;;0.40;;
37645;SDS011;23489;49.600;6.138;2024-03-02T05:25:58;2.08;;;0.57;;
37645;SDS011;23489;49.600;6.138;2024-03-02T05:28:24;1.08;;;0.70;;
37645;SDS011;23489;49.600;6.138;2024-03-02T05:30:50;1.65;;;0.70;;
37645;SDS011;23489;49.600;6.138;2024-03-02T05:33:15;1.63;;;0.60;;
37645;SDS011;23489;49.600;6.138;2024-03-02T05:35:41;1.52;;;0.73;;
37645;SDS011;23489;49.600;6.138;2024-03-02T05:38:08;1.50;;;0.82;;
37645;SDS011;23489;49.600;6.138;2024-03-02T05:40:34;1.23;;;0.90;;
37645;SDS011;23489;49.600;6.138;2024-03-02T05:43:00;1.33;;;0.80;;
37645;SDS011;23489;49.600;6.138;2024-03-02T05:45:25;2.33;;;0.90;;
37645;SDS011;23489;49.600;6.138;2024-03-02T05:47:51;2.03;;;1.10;;
37645;SDS011;23489;49.600;6.138;2024-03-02T05:50:16;1.70;;;0.98;;
37645;SDS011;23489;49.600;6.138;2024-03-02T05:52:44;1.52;;;1.10;;
37645;SDS011;23489;49.600;6.138;2024-03-02T05:55:10;1.15;;;0.98;;
37645;SDS011;23489;49.600;6.138;2024-03-02T05:57:36;1.17;;;1.08;;
37645;SDS011;23489;49.600;6.138;2024-03-02T06:02:47;1.98;;;1.20;;
37645;SDS011;23489;49.600;6.138;2024-03-02T06:05:13;2.10;;;1.10;;
37645;SDS011;23489;49.600;6.138;2024-03-02T06:07:40;1.33;;;1.00;;
37645;SDS011;23489;49.600;6.138;2024-03-02T06:10:05;2.63;;;1.30;;
37645;SDS011;23489;49.600;6.138;2024-03-02T06:12:33;2.33;;;1.25;;
37645;SDS011;23489;49.600;6.138;2024-03-02T06:14:59;1.85;;;1.48;;
37645;SDS011;23489;49.600;6.138;2024-03-02T06:17:25;3.85;;;1.40;;
37645;SDS011;23489;49.600;6.138;2024-03-02T06:19:50;1.23;;;1.13;;
37645;SDS011;23489;49.600;6.138;2024-03-02T06:22:16;1.75;;;1.40;;
37645;SDS011;23489;49.600;6.138;2024-03-02T06:24:42;2.47;;;1.10;;
37645;SDS011;23489;49.600;6.138;2024-03-02T06:27:07;2.10;;;1.52;;
37645;SDS011;23489;49.600;6.138;2024-03-02T06:29:33;1.25;;;1.15;;
37645;SDS011;23489;49.600;6.138;2024-03-02T06:31:59;2.20;;;1.40;;
37645;SDS011;23489;49.600;6.138;2024-03-02T06:34:25;1.55;;;1.20;;
37645;SDS011;23489;49.600;6.138;2024-03-02T06:36:51;2.15;;;1.63;;
37645;SDS011;23489;49.600;6.138;2024-03-02T06:39:16;1.63;;;1.30;;
37645;SDS011;23489;49.600;6.138;2024-03-02T06:41:42;1.45;;;1.27;;
37645;SDS011;23489;49.600;6.138;2024-03-02T06:44:08;1.15;;;1.05;;
37645;SDS011;23489;49.600;6.138;2024-03-02T06:46:33;1.13;;;1.00;;
37645;SDS011;23489;49.600;6.138;2024-03-02T06:48:59;2.17;;;1.20;;
37645;SDS011;23489;49.600;6.138;2024-03-02T06:51:27;1.48;;;1.38;;
37645;SDS011;23489;49.600;6.138;2024-03-02T06:53:53;1.35;;;1.13;;
37645;SDS011;23489;49.600;6.138;2024-03-02T06:56:18;1.83;;;0.95;;
37645;SDS011;23489;49.600;6.138;2024-03-02T06:58:44;3.05;;;1.20;;
37645;SDS011;23489;49.600;6.138;2024-03-02T07:01:10;1.42;;;1.15;;
37645;SDS011;23489;49.600;6.138;2024-03-02T07:03:35;2.28;;;1.50;;
37645;SDS011;23489;49.600;6.138;2024-03-02T07:06:01;1.60;;;1.25;;
37645;SDS011;23489;49.600;6.138;2024-03-02T07:08:27;3.25;;;2.30;;
37645;SDS011;23489;49.600;6.138;2024-03-02T07:10:52;1.52;;;1.30;;
37645;SDS011;23489;49.600;6.138;2024-03-02T07:13:18;1.83;;;1.52;;
37645;SDS011;23489;49.600;6.138;2024-03-02T07:15:44;1.85;;;1.58;;
37645;SDS011;23489;49.600;6.138;2024-03-02T07:18:32;2.08;;;1.50;;
37645;SDS011;23489;49.600;6.138;2024-03-02T07:21:06;1.50;;;1.30;;
37645;SDS011;23489;49.600;6.138;2024-03-02T07:23:32;3.03;;;1.50;;
37645;SDS011;23489;49.600;6.138;2024-03-02T07:25:59;1.60;;;1.10;;
37645;SDS011;23489;49.600;6.138;2024-03-02T07:28:26;2.70;;;1.35;;
37645;SDS011;23489;49.600;6.138;2024-03-02T07:33:24;1.00;;;1.00;;
37645;SDS011;23489;49.600;6.138;2024-03-02T07:35:50;1.40;;;1.27;;
37645;SDS011;23489;49.600;6.138;2024-03-02T07:38:16;2.88;;;1.25;;
37645;SDS011;23489;49.600;6.138;2024-03-02T07:40:42;3.17;;;1.50;;
37645;SDS011;23489;49.600;6.138;2024-03-02T07:43:08;3.72;;;1.50;;
37645;SDS011;23489;49.600;6.138;2024-03-02T07:45:34;2.35;;;1.20;;
37645;SDS011;23489;49.600;6.138;2024-03-02T07:48:01;3.60;;;1.42;;
37645;SDS011;23489;49.600;6.138;2024-03-02T07:50:29;2.80;;;1.83;;
37645;SDS011;23489;49.600;6.138;2024-03-02T07:52:55;1.60;;;1.50;;
37645;SDS011;23489;49.600;6.138;2024-03-02T07:55:21;3.75;;;1.70;;
37645;SDS011;23489;49.600;6.138;2024-03-02T07:57:49;2.65;;;1.45;;
37645;SDS011;23489;49.600;6.138;2024-03-02T08:05:07;1.40;;;1.30;;
37645;SDS011;23489;49.600;6.138;2024-03-02T08:07:33;1.63;;;1.40;;
37645;SDS011;23489;49.600;6.138;2024-03-02T10:31:43;1.33;;;1.23;;
37645;SDS011;23489;49.600;6.138;2024-03-02T10:34:19;2.25;;;1.58;;
37645;SDS011;23489;49.600;6.138;2024-03-02T10:41:39;3.28;;;1.67;;
37645;SDS011;23489;49.600;6.138;2024-03-02T10:44:06;4.25;;;1.33;;
37645;SDS011;23489;49.600;6.138;2024-03-02T10:46:33;1.75;;;1.30;;
37645;SDS011;23489;49.600;6.138;2024-03-02T10:51:28;2.10;;;1.37;;
37645;SDS011;23489;49.600;6.138;2024-03-02T10:56:30;2.30;;;1.30;;
37645;SDS011;23489;49.600;6.138;2024-03-02T11:01:47;2.03;;;1.60;;
37645;SDS011;23489;49.600;6.138;2024-03-02T11:04:15;2.55;;;1.38;;
37645;SDS011;23489;49.600;6.138;2024-03-02T11:06:48;2.10;;;1.40;;
37645;SDS011;23489;49.600;6.138;2024-03-02T11:09:14;1.92;;;1.52;;
37645;SDS011;23489;49.600;6.138;2024-03-02T11:11:44;1.85;;;1.63;;
37645;SDS011;23489;49.600;6.138;2024-03-02T11:14:13;2.22;;;1.73;;
37645;SDS011;23489;49.600;6.138;2024-03-02T11:16:42;4.82;;;2.17;;
37645;SDS011;23489;49.600;6.138;2024-03-02T11:19:10;3.58;;;1.98;;
37645;SDS011;23489;49.600;6.138;2024-03-02T11:21:38;3.42;;;1.83;;
37645;SDS011;23489;49.600;6.138;2024-03-02T11:27:03;2.58;;;1.70;;
37645;SDS011;23489;49.600;6.138;2024-03-02T11:32:18;4.88;;;3.13;;
37645;SDS011;23489;49.600;6.138;2024-03-02T11:34:47;2.78;;;2.10;;
37645;SDS011;23489;49.600;6.138;2024-03-02T11:37:17;7.70;;;4.85;;
37645;SDS011;23489;49.600;6.138;2024-03-02T12:06:54;2.50;;;1.92;;
37645;SDS011;23489;49.600;6.138;2024-03-02T12:09:20;2.58;;;1.83;;
37645;SDS011;23489;49.600;6.138;2024-03-02T12:11:46;2.38;;;1.70;;
37645;SDS011;23489;49.600;6.138;2024-03-02T12:14:12;3.90;;;2.20;;
37645;SDS011;23489;49.600;6.138;2024-03-02T12:16:38;3.08;;;1.77;;
37645;SDS011;23489;49.600;6.138;2024-03-02T12:19:05;1.90;;;1.63;;
37645;SDS011;23489;49.600;6.138;2024-03-02T12:21:31;3.25;;;1.80;;
37645;SDS011;23489;49.600;6.138;2024-03-02T12:23:57;1.52;;;1.42;;
37645;SDS011;23489;49.600;6.138;2024-03-02T12:26:23;2.67;;;1.70;;
37645;SDS011;23489;49.600;6.138;2024-03-02T12:28:49;2.90;;;1.90;;
37645;SDS011;23489;49.600;6.138;2024-03-02T12:31:15;2.90;;;1.70;;
37645;SDS011;23489;49.600;6.138;2024-03-02T12:33:41;2.03;;;1.53;;
37645;SDS011;23489;49.600;6.138;2024-03-02T12:36:09;2.55;;;1.77;;
37645;SDS011;23489;49.600;6.138;2024-03-02T12:38:37;2.35;;;1.58;;
37645;SDS011;23489;49.600;6.138;2024-03-02T12:41:08;3.15;;;1.85;;
37645;SDS011;23489;49.600;6.138;2024-03-02T12:43:33;3.13;;;1.80;;
37645;SDS011;23489;49.600;6.138;2024-03-02T12:45:59;2.47;;;1.50;;
37645;SDS011;23489;49.600;6.138;2024-03-02T12:48:25;1.52;;;1.35;;
37645;SDS011;23489;49.600;6.138;2024-03-02T12:50:51;2.60;;;1.50;;
37645;SDS011;23489;49.600;6.138;2024-03-02T12:53:17;1.83;;;1.30;;
37645;SDS011;23489;49.600;6.138;2024-03-02T12:55:42;2.95;;;1.48;;
37645;SDS011;23489;49.600;6.138;2024-03-02T12:58:18;2.22;;;1.40;;
37645;SDS011;23489;49.600;6.138;2024-03-02T13:00:45;1.80;;;1.40;;
37645;SDS011;23489;49.600;6.138;2024-03-02T13:03:11;2.28;;;1.55;;
37645;SDS011;23489;49.600;6.138;2024-03-02T13:05:37;2.63;;;1.40;;
37645;SDS011;23489;49.600;6.138;2024-03-02T13:08:04;2.28;;;1.35;;
37645;SDS011;23489;49.600;6.138;2024-03-02T13:10:32;2.63;;;1.33;;
37645;SDS011;23489;49.600;6.138;2024-03-02T13:12:58;2.00;;;1.30;;
37645;SDS011;23489;49.600;6.138;2024-03-02T13:15:26;2.30;;;1.10;;
37645;SDS011;23489;49.600;6.138;2024-03-02T13:17:52;2.20;;;1.50;;
37645;SDS011;23489;49.600;6.138;2024-03-02T13:20:18;1.65;;;1.33;;
37645;SDS011;23489;49.600;6.138;2024-03-02T13:22:45;1.10;;;0.93;;
37645;SDS011;23489;49.600;6.138;2024-03-02T13:25:11;1.33;;;1.23;;
37645;SDS011;23489;49.600;6.138;2024-03-02T13:27:37;1.38;;;1.10;;
37645;SDS011;23489;49.600;6.138;2024-03-02T13:30:03;2.00;;;1.13;;
37645;SDS011;23489;49.600;6.138;2024-03-02T13:32:31;2.55;;;2.28;;
37645;SDS011;23489;49.600;6.138;2024-03-02T13:34:57;1.60;;;1.20;;
37645;SDS011;23489;49.600;6.138;2024-03-02T13:37:22;1.52;;;1.10;;
37645;SDS011;23489;49.600;6.138;2024-03-02T13:39:48;1.40;;;1.27;;
37645;SDS011;23489;49.600;6.138;2024-03-02T13:42:14;1.80;;;1.27;;
37645;SDS011;23489;49.600;6.138;2024-03-02T13:44:41;1.50;;;1.20;;
37645;SDS011;23489;49.600;6.138;2024-03-02T13:47:10;1.20;;;1.10;;
37645;SDS011;23489;49.600;6.138;2024-03-02T13:49:36;2.50;;;1.10;;
37645;SDS011;23489;49.600;6.138;2024-03-02T13:52:03;1.53;;;1.20;;
37645;SDS011;23489;49.600;6.138;2024-03-02T13:54:41;1.20;;;1.10;;
37645;SDS011;23489;49.600;6.138;2024-03-02T13:57:09;1.60;;;1.10;;
37645;SDS011;23489;49.600;6.138;2024-03-02T13:59:35;1.13;;;1.02;;
37645;SDS011;23489;49.600;6.138;2024-03-02T14:02:02;1.98;;;0.90;;
37645;SDS011;23489;49.600;6.138;2024-03-02T14:04:31;2.03;;;1.10;;
37645;SDS011;23489;49.600;6.138;2024-03-02T14:06:58;1.83;;;1.20;;
37645;SDS011;23489;49.600;6.138;2024-03-02T14:09:24;1.15;;;1.00;;
37645;SDS011;23489;49.600;6.138;2024-03-02T14:11:52;1.50;;;1.23;;
37645;SDS011;23489;49.600;6.138;2024-03-02T14:14:18;1.77;;;1.08;;
37645;SDS011;23489;49.600;6.138;2024-03-02T14:16:44;2.20;;;1.10;;
37645;SDS011;23489;49.600;6.138;2024-03-02T14:19:10;1.13;;;1.02;;
37645;SDS011;23489;49.600;6.138;2024-03-02T14:21:37;2.10;;;1.23;;
37645;SDS011;23489;49.600;6.138;2024-03-02T14:24:03;1.85;;;1.10;;
37645;SDS011;23489;49.600;6.138;2024-03-02T14:26:29;1.67;;;1.10;;
37645;SDS011;23489;49.600;6.138;2024-03-02T14:28:55;1.13;;;0.93;;
37645;SDS011;23489;49.600;6.138;2024-03-02T14:31:21;1.10;;;1.00;;
37645;SDS011;23489;49.600;6.138;2024-03-02T14:33:47;1.85;;;1.10;;
37645;SDS011;23489;49.600;6.138;2024-03-02T14:36:12;2.40;;;0.90;;
37645;SDS011;23489;49.600;6.138;2024-03-02T14:38:38;1.20;;;1.08;;
37645;SDS011;23489;49.600;6.138;2024-03-02T14:41:04;1.40;;;0.98;;
37645;SDS011;23489;49.600;6.138;2024-03-02T14:43:30;1.27;;;1.10;;
37645;SDS011;23489;49.600;6.138;2024-03-02T14:45:56;1.95;;;1.00;;
37645;SDS011;23489;49.600;6.138;2024-03-02T14:48:22;1.17;;;1.00;;
37645;SDS011;23489;49.600;6.138;2024-03-02T14:50:48;1.73;;;1.20;;
37645;SDS011;23489;49.600;6.138;2024-03-02T14:53:14;1.30;;;1.15;;
37645;SDS011;23489;49.600;6.138;2024-03-02T14:55:39;1.43;;;1.10;;
37645;SDS011;23489;49.600;6.138;2024-03-02T14:58:05;2.87;;;1.30;;
37645;SDS011;23489;49.600;6.138;2024-03-02T15:00:31;2.35;;;1.40;;
37645;SDS011;23489;49.600;6.138;2024-03-02T15:02:56;2.30;;;1.20;;
37645;SDS011;23489;49.600;6.138;2024-03-02T15:05:23;1.50;;;1.10;;
37645;SDS011;23489;49.600;6.138;2024-03-02T15:07:51;1.50;;;1.00;;
37645;SDS011;23489;49.600;6.138;2024-03-02T15:10:18;1.60;;;1.27;;
37645;SDS011;23489;49.600;6.138;2024-03-02T15:12:44;1.95;;;1.15;;
37645;SDS011;23489;49.600;6.138;2024-03-02T15:15:10;1.52;;;1.10;;
37645;SDS011;23489;49.600;6.138;2024-03-02T15:17:36;1.90;;;1.20;;
37645;SDS011;23489;49.600;6.138;2024-03-02T15:20:02;1.40;;;1.30;;
37645;SDS011;23489;49.600;6.138;2024-03-02T15:22:29;1.50;;;1.10;;
37645;SDS011;23489;49.600;6.138;2024-03-02T15:24:55;1.93;;;1.30;;
37645;SDS011;23489;49.600;6.138;2024-03-02T15:27:21;2.25;;;1.20;;
37645;SDS011;23489;49.600;6.138;2024-03-02T15:29:46;1.30;;;1.20;;
37645;SDS011;23489;49.600;6.138;2024-03-02T15:32:15;2.10;;;1.33;;
37645;SDS011;23489;49.600;6.138;2024-03-02T15:34:41;1.30;;;1.10;;
37645;SDS011;23489;49.600;6.138;2024-03-02T15:37:08;1.20;;;1.10;;
37645;SDS011;23489;49.600;6.138;2024-03-02T15:39:34;1.48;;;1.00;;
37645;SDS011;23489;49.600;6.138;2024-03-02T15:41:59;1.87;;;1.10;;
37645;SDS011;23489;49.600;6.138;2024-03-02T15:44:25;1.55;;;1.13;;
37645;SDS011;23489;49.600;6.138;2024-03-02T15:46:51;1.87;;;1.43;;
37645;SDS011;23489;49.600;6.138;2024-03-02T15:49:17;3.13;;;1.40;;
37645;SDS011;23489;49.600;6.138;2024-03-02T15:51:42;2.42;;;1.30;;
37645;SDS011;23489;49.600;6.138;2024-03-02T15:54:09;2.63;;;1.73;;
37645;SDS011;23489;49.600;6.138;2024-03-02T15:56:36;2.30;;;1.33;;
37645;SDS011;23489;49.600;6.138;2024-03-02T15:59:02;2.00;;;1.33;;
37645;SDS011;23489;49.600;6.138;2024-03-02T16:01:30;3.53;;;1.70;;
37645;SDS011;23489;49.600;6.138;2024-03-02T16:03:56;1.65;;;1.40;;
37645;SDS011;23489;49.600;6.138;2024-03-02T16:06:22;1.83;;;1.40;;
37645;SDS011;23489;49.600;6.138;2024-03-02T16:08:48;1.80;;;1.20;;
37645;SDS011;23489;49.600;6.138;2024-03-02T16:11:13;2.28;;;1.58;;
37645;SDS011;23489;49.600;6.138;2024-03-02T16:13:39;1.42;;;1.30;;
37645;SDS011;23489;49.600;6.138;2024-03-02T16:16:05;2.17;;;1.52;;
37645;SDS011;23489;49.600;6.138;2024-03-02T16:18:31;1.90;;;1.40;;
37645;SDS011;23489;49.600;6.138;2024-03-02T16:20:56;1.60;;;1.45;;
37645;SDS011;23489;49.600;6.138;2024-03-02T16:23:22;2.17;;;1.60;;
37645;SDS011;23489;49.600;6.138;2024-03-02T16:35:30;3.33;;;2.10;;
37645;SDS011;23489;49.600;6.138;2024-03-02T16:37:56;3.47;;;2.10;;
37645;SDS011;23489;49.600;6.138;2024-03-02T16:40:21;3.47;;;2.40;;
37645;SDS011;23489;49.600;6.138;2024-03-02T16:42:47;2.47;;;2.00;;
37645;SDS011;23489;49.600;6.138;2024-03-02T16:45:13;2.28;;;2.00;;
37645;SDS011;23489;49.600;6.138;2024-03-02T16:47:39;2.30;;;1.95;;
37645;SDS011;23489;49.600;6.138;2024-03-02T17:21:43;3.30;;;2.15;;
37645;SDS011;23489;49.600;6.138;2024-03-02T17:24:08;2.90;;;1.90;;
37645;SDS011;23489;49.600;6.138;2024-03-02T17:26:34;2.63;;;2.00;;
37645;SDS011;23489;49.600;6.138;2024-03-02T17:29:00;2.75;;;2.05;;
37645;SDS011;23489;49.600;6.138;2024-03-02T17:31:26;3.00;;;2.15;;
37645;SDS011;23489;49.600;6.138;2024-03-02T17:33:52;2.80;;;2.05;;
37645;SDS011;23489;49.600;6.138;2024-03-02T17:36:17;2.35;;;1.90;;
37645;SDS011;23489;49.600;6.138;2024-03-02T17:38:43;1.92;;;1.80;;
37645;SDS011;23489;49.600;6.138;2024-03-02T17:41:09;3.72;;;2.08;;
37645;SDS011;23489;49.600;6.138;2024-03-02T17:43:38;2.42;;;1.77;;
37645;SDS011;23489;49.600;6.138;2024-03-02T17:46:04;1.90;;;1.65;;
37645;SDS011;23489;49.600;6.138;2024-03-02T18:46:48;2.45;;;1.88;;
37645;SDS011;23489;49.600;6.138;2024-03-02T18:51:40;4.35;;;2.03;;
37645;SDS011;23489;49.600;6.138;2024-03-02T18:54:07;2.38;;;1.92;;
37645;SDS011;23489;49.600;6.138;2024-03-02T18:56:33;2.22;;;1.60;;
37645;SDS011;23489;49.600;6.138;2024-03-02T18:58:59;2.20;;;1.90;;
37645;SDS011;23489;49.600;6.138;2024-03-02T19:01:25;1.98;;;1.67;;
37645;SDS011;23489;49.600;6.138;2024-03-02T19:03:51;5.00;;;1.95;;
37645;SDS011;23489;49.600;6.138;2024-03-02T19:06:16;3.83;;;2.20;;
37645;SDS011;23489;49.600;6.138;2024-03-02T19:08:42;2.70;;;1.92;;
37645;SDS011;23489;49.600;6.138;2024-03-02T19:11:12;2.70;;;2.10;;
37645;SDS011;23489;49.600;6.138;2024-03-02T19:13:39;2.42;;;2.20;;
37645;SDS011;23489;49.600;6.138;2024-03-02T19:16:05;4.05;;;2.50;;
37645;SDS011;23489;49.600;6.138;2024-03-02T19:18:34;2.90;;;2.22;;
37645;SDS011;23489;49.600;6.138;2024-03-02T19:21:00;2.38;;;1.92;;
37645;SDS011;23489;49.600;6.138;2024-03-02T19:23:26;3.50;;;2.20;;
37645;SDS011;23489;49.600;6.138;2024-03-02T19:25:54;4.88;;;3.80;;
37645;SDS011;23489;49.600;6.138;2024-03-02T19:28:22;6.13;;;4.47;;
37645;SDS011;23489;49.600;6.138;2024-03-02T19:30:48;5.38;;;3.90;;
37645;SDS011;23489;49.600;6.138;2024-03-02T19:42:58;2.33;;;2.08;;
37645;SDS011;23489;49.600;6.138;2024-03-02T19:47:50;4.00;;;3.00;;
37645;SDS011;23489;49.600;6.138;2024-03-02T19:50:15;2.80;;;2.47;;
37645;SDS011;23489;49.600;6.138;2024-03-02T19:52:45;4.53;;;2.72;;
37645;SDS011;23489;49.600;6.138;2024-03-02T19:55:11;4.93;;;3.80;;
37645;SDS011;23489;49.600;6.138;2024-03-02T19:57:38;4.25;;;3.08;;
37645;SDS011;23489;49.600;6.138;2024-03-02T20:00:10;4.55;;;3.45;;
37645;SDS011;23489;49.600;6.138;2024-03-02T20:02:37;4.73;;;3.67;;
37645;SDS011;23489;49.600;6.138;2024-03-02T20:05:03;4.00;;;3.35;;